Time;durP1;ratioP1;P1;durP2;ratioP2;P2;SDS_P1;SDS_P2;PMS_P1;PMS_P2;Temp;Humidity;BMP_temperature;BMP_pressure;BME280_temperature;BME280_humidity;BME280_pressure;Samples;Min_cycle;Max_cycle;Signal;HPM_P1;HPM_P2
2023/04/01 00:00:57;;;;;;;;;;;9.80;99.90;;;;;;5036556;28;20352;-72
2023/04/01 00:03:24;;;;;;;;;;;9.70;99.90;;;;;;5017838;28;19921;-72
2023/04/01 00:05:49;;;;;;;;;;;9.70;99.90;;;;;;5035860;28;19921;-72
2023/04/01 00:08:15;;;;;;;;;;;9.70;99.90;;;;;;5017520;28;20364;-72
2023/04/01 00:10:41;;;;;;;;;;;9.70;99.90;;;;;;5016791;28;20383;-72
2023/04/01 00:13:07;;;;;;;;;;;9.70;99.90;;;;;;5035063;28;19925;-72
2023/04/01 00:15:35;;;;;;;;;;;9.70;99.90;;;;;;5034003;28;19947;-72
2023/04/01 00:18:01;;;;;;;;;;;9.70;99.90;;;;;;5034200;28;20376;-72
2023/04/01 00:20:29;;;;;;;;;;;9.80;99.90;;;;;;5017097;28;19928;-72
2023/04/01 00:22:55;;;;;;;;;;;9.80;99.90;;;;;;5034823;28;19944;-72
2023/04/01 00:25:22;;;;;;;;;;;9.80;99.90;;;;;;5032853;28;20019;-72
2023/04/01 00:27:47;;;;;;;;;;;9.70;99.90;;;;;;5034855;28;19976;-72
2023/04/01 00:30:13;;;;;;;;;;;9.70;99.90;;;;;;5016893;28;19966;-72
2023/04/01 00:32:38;;;;;;;;;;;9.70;99.90;;;;;;5033838;28;19921;-72
2023/04/01 00:35:07;;;;;;;;;;;9.70;99.90;;;;;;5034472;28;19924;-72
2023/04/01 00:37:34;;;;;;;;;;;9.70;99.90;;;;;;5015486;28;19925;-72
2023/04/01 00:40:00;;;;;;;;;;;9.70;99.90;;;;;;5014186;28;19944;-71
2023/04/01 00:42:25;;;;;;;;;;;9.70;99.90;;;;;;5014357;28;20377;-72
2023/04/01 00:44:52;;;;;;;;;;;9.70;99.90;;;;;;4996871;28;19921;-72
2023/04/01 00:47:17;;;;;;;;;;;9.70;99.90;;;;;;5030059;28;19991;-72
2023/04/01 00:49:45;;;;;;;;;;;9.70;99.90;;;;;;5033832;28;20372;-72
2023/04/01 00:52:12;;;;;;;;;;;9.70;99.90;;;;;;5033623;28;20008;-72
2023/04/01 00:54:38;;;;;;;;;;;9.70;99.90;;;;;;5016502;28;19921;-72
2023/04/01 00:57:18;;;;;;;;;;;9.70;99.90;;;;;;5034136;28;19925;-72
2023/04/01 00:59:49;;;;;;;;;;;9.70;99.90;;;;;;5015867;28;19925;-72
2023/04/01 01:02:15;;;;;;;;;;;9.70;99.90;;;;;;5031001;28;19921;-72
2023/04/01 01:04:41;;;;;;;;;;;9.70;99.90;;;;;;4998058;28;19921;-72
2023/04/01 01:07:07;;;;;;;;;;;9.80;99.90;;;;;;5013369;28;20020;-72
2023/04/01 01:09:40;;;;;;;;;;;9.70;99.90;;;;;;5013876;28;19925;-72
2023/04/01 01:12:20;;;;;;;;;;;9.70;99.90;;;;;;5014496;28;19928;-72
2023/04/01 01:15:08;;;;;;;;;;;9.70;99.90;;;;;;5013590;28;19925;-72
2023/04/01 01:17:37;;;;;;;;;;;9.70;99.90;;;;;;5013137;28;20541;-72
2023/04/01 01:20:15;;;;;;;;;;;10.00;99.90;;;;;;4995347;28;20024;-72
2023/04/01 01:22:49;;;;;;;;;;;9.60;99.90;;;;;;5013884;28;19921;-72
2023/04/01 01:25:29;;;;;;;;;;;9.60;99.90;;;;;;5013817;28;20008;-72
2023/04/01 01:28:09;;;;;;;;;;;9.60;99.90;;;;;;4995599;28;19975;-72
2023/04/01 01:30:49;;;;;;;;;;;9.60;99.90;;;;;;4995829;28;19921;-70
2023/04/01 01:33:23;;;;;;;;;;;9.60;99.90;;;;;;5013857;28;20332;-72
2023/04/01 01:35:50;;;;;;;;;;;9.60;99.90;;;;;;5013061;28;19964;-72
2023/04/01 01:38:17;;;;;;;;;;;9.60;99.90;;;;;;5013968;28;19921;-71
2023/04/01 01:40:45;;;;;;;;;;;9.60;99.90;;;;;;5013474;28;20447;-72
2023/04/01 01:43:12;;;;;;;;;;;9.60;99.90;;;;;;5012882;28;19921;-72
2023/04/01 01:45:40;;;;;;;;;;;9.60;99.90;;;;;;5013350;28;19925;-70
2023/04/01 01:48:06;;;;;;;;;;;9.60;99.90;;;;;;4995902;28;19921;-69
2023/04/01 01:50:33;;;;;;;;;;;9.60;99.90;;;;;;5013114;28;19936;-70
2023/04/01 01:53:05;;;;;;;;;;;9.60;99.90;;;;;;5013587;28;19925;-70
2023/04/01 01:55:35;;;;;;;;;;;9.40;99.90;;;;;;4995228;28;20297;-70
2023/04/01 01:58:15;;;;;;;;;;;9.70;99.90;;;;;;5013705;28;19975;-70
2023/04/01 02:00:44;;;;;;;;;;;9.60;99.90;;;;;;4995600;28;19921;-70
2023/04/01 02:03:10;;;;;;;;;;;9.60;99.90;;;;;;5012789;28;19921;-70
2023/04/01 02:05:36;;;;;;;;;;;9.60;99.90;;;;;;4995520;28;19921;-70
2023/04/01 02:08:05;;;;;;;;;;;9.60;99.90;;;;;;4995702;28;19921;-70
2023/04/01 02:10:33;;;;;;;;;;;9.60;99.90;;;;;;4995125;28;19927;-70
2023/04/01 02:13:01;;;;;;;;;;;9.50;99.90;;;;;;5013545;28;19925;-71
2023/04/01 02:15:30;;;;;;;;;;;9.60;99.90;;;;;;4995524;28;20011;-71
2023/04/01 02:17:56;;;;;;;;;;;9.60;99.90;;;;;;4995288;28;19921;-70
2023/04/01 02:20:23;;;;;;;;;;;9.60;99.90;;;;;;4997341;28;19961;-70
2023/04/01 02:22:54;;;;;;;;;;;9.50;99.90;;;;;;5013157;28;20700;-70
2023/04/01 02:25:22;;;;;;;;;;;9.50;99.90;;;;;;5012538;28;20001;-70
2023/04/01 02:27:48;;;;;;;;;;;9.60;99.90;;;;;;5013366;28;19922;-70
2023/04/01 02:30:17;;;;;;;;;;;9.50;99.90;;;;;;5012910;28;20365;-70
2023/04/01 02:32:42;;;;;;;;;;;9.50;99.90;;;;;;5015868;28;19921;-70
2023/04/01 02:35:12;;;;;;;;;;;9.60;99.90;;;;;;5017397;28;19928;-70
2023/04/01 02:37:41;;;;;;;;;;;9.60;99.90;;;;;;4999818;28;19976;-71
2023/04/01 02:40:08;;;;;;;;;;;9.50;99.90;;;;;;5036646;28;20368;-71
2023/04/01 02:42:33;;;;;;;;;;;9.60;99.90;;;;;;4998858;28;19925;-71
2023/04/01 02:44:59;;;;;;;;;;;9.70;99.90;;;;;;4998650;28;20305;-71
2023/04/01 02:47:25;;;;;;;;;;;9.60;99.90;;;;;;4998996;28;20336;-71
2023/04/01 02:49:57;;;;;;;;;;;9.70;99.90;;;;;;5016615;28;19921;-71
2023/04/01 02:52:26;;;;;;;;;;;9.60;99.90;;;;;;5015963;28;19932;-71
2023/04/01 02:54:52;;;;;;;;;;;9.60;99.90;;;;;;5016822;28;19956;-71
2023/04/01 02:57:17;;;;;;;;;;;9.60;99.90;;;;;;5000216;28;19925;-71
2023/04/01 02:59:43;;;;;;;;;;;9.70;99.90;;;;;;5035287;28;19925;-71
2023/04/01 03:02:08;;;;;;;;;;;9.60;99.90;;;;;;5036266;28;19917;-71
2023/04/01 03:04:34;;;;;;;;;;;9.70;99.90;;;;;;5017795;28;20016;-71
2023/04/01 03:07:00;;;;;;;;;;;9.60;99.90;;;;;;5017410;28;19927;-71
2023/04/01 03:09:25;;;;;;;;;;;9.60;99.90;;;;;;5035784;28;19967;-71
2023/04/01 03:11:51;;;;;;;;;;;9.60;99.90;;;;;;5018449;28;19928;-71
2023/04/01 03:14:16;;;;;;;;;;;9.60;99.90;;;;;;5034907;28;19925;-71
2023/04/01 03:16:42;;;;;;;;;;;9.60;99.90;;;;;;5035526;28;19968;-72
2023/04/01 03:19:07;;;;;;;;;;;9.70;99.90;;;;;;5036371;28;19921;-71
2023/04/01 03:21:33;;;;;;;;;;;10.10;99.90;;;;;;5035038;28;20446;-71
2023/04/01 03:24:01;;;;;;;;;;;9.60;99.90;;;;;;5035943;28;19925;-72
2023/04/01 03:26:27;;;;;;;;;;;10.10;99.90;;;;;;5010394;28;20679;-71
2023/04/01 03:28:53;;;;;;;;;;;9.70;99.90;;;;;;5009032;28;19925;-71
2023/04/01 03:31:19;;;;;;;;;;;9.60;99.90;;;;;;5026448;28;19925;-71
2023/04/01 03:33:44;;;;;;;;;;;9.70;99.90;;;;;;5033297;28;19964;-72
2023/04/01 03:36:12;;;;;;;;;;;9.70;99.90;;;;;;5017656;28;20373;-72
2023/04/01 03:38:38;;;;;;;;;;;9.80;99.90;;;;;;5013683;28;19925;-71
2023/04/01 03:41:04;;;;;;;;;;;9.70;99.90;;;;;;4998047;28;19921;-72
2023/04/01 03:43:29;;;;;;;;;;;9.70;99.90;;;;;;4997338;28;19922;-72
2023/04/01 03:45:57;;;;;;;;;;;9.70;99.90;;;;;;4998747;28;19921;-71
2023/04/01 03:48:25;;;;;;;;;;;9.70;99.90;;;;;;5002193;28;20523;-71
2023/04/01 03:50:54;;;;;;;;;;;9.70;99.90;;;;;;5017588;28;20004;-72
2023/04/01 03:53:19;;;;;;;;;;;9.70;99.90;;;;;;5016829;28;19925;-71
2023/04/01 03:55:46;;;;;;;;;;;9.70;99.90;;;;;;5015841;28;19917;-71
2023/04/01 03:58:12;;;;;;;;;;;9.70;99.90;;;;;;5013009;28;19922;-71
2023/04/01 04:00:37;;;;;;;;;;;9.60;99.90;;;;;;5014324;28;19924;-71
2023/04/01 04:03:03;;;;;;;;;;;9.60;99.90;;;;;;5034326;28;19928;-70
2023/04/01 04:05:28;;;;;;;;;;;9.60;99.90;;;;;;5035166;28;19928;-71
2023/04/01 04:07:54;;;;;;;;;;;9.60;99.90;;;;;;5017339;28;19924;-71
2023/04/01 04:10:20;;;;;;;;;;;9.60;99.90;;;;;;5034337;28;19921;-71
2023/04/01 04:12:45;;;;;;;;;;;9.60;99.90;;;;;;5035002;28;19921;-72
2023/04/01 04:15:11;;;;;;;;;;;9.80;99.90;;;;;;5006837;28;20016;-72
2023/04/01 04:17:36;;;;;;;;;;;9.50;99.90;;;;;;4997128;28;19983;-72
2023/04/01 04:20:02;;;;;;;;;;;9.50;99.90;;;;;;5015481;28;20455;-71
2023/04/01 04:22:31;;;;;;;;;;;9.50;99.90;;;;;;5014990;28;19972;-71
2023/04/01 04:24:56;;;;;;;;;;;9.60;99.90;;;;;;5015036;28;19921;-71
2023/04/01 04:27:22;;;;;;;;;;;9.60;99.90;;;;;;5014996;28;19928;-71
2023/04/01 04:29:47;;;;;;;;;;;9.60;99.90;;;;;;5014836;28;20012;-71
2023/04/01 04:32:13;;;;;;;;;;;9.60;99.90;;;;;;5014489;28;20000;-71
2023/04/01 04:34:39;;;;;;;;;;;9.60;99.90;;;;;;5014838;28;19925;-71
2023/04/01 04:37:05;;;;;;;;;;;9.60;99.90;;;;;;5015149;28;19925;-71
2023/04/01 04:39:30;;;;;;;;;;;9.60;99.90;;;;;;5015388;28;19921;-71
2023/04/01 04:41:56;;;;;;;;;;;9.60;99.90;;;;;;5016300;28;19921;-69
2023/04/01 04:44:21;;;;;;;;;;;9.60;99.90;;;;;;5018976;28;19928;-71
2023/04/01 04:46:47;;;;;;;;;;;9.90;99.90;;;;;;5027446;28;19928;-71
2023/04/01 04:49:13;;;;;;;;;;;9.70;99.90;;;;;;5012942;28;19931;-70
2023/04/01 04:51:39;;;;;;;;;;;9.60;99.90;;;;;;5032357;28;19921;-70
2023/04/01 04:54:05;;;;;;;;;;;9.60;99.90;;;;;;5032618;28;19929;-71
2023/04/01 04:56:35;;;;;;;;;;;9.60;99.90;;;;;;5016030;28;19929;-70
2023/04/01 04:59:01;;;;;;;;;;;9.70;99.90;;;;;;5034122;28;20690;-71
2023/04/01 05:01:27;;;;;;;;;;;9.60;99.90;;;;;;5022287;28;20391;-71
2023/04/01 05:03:52;;;;;;;;;;;10.10;99.90;;;;;;5041335;28;19928;-71
2023/04/01 05:06:18;;;;;;;;;;;9.60;99.90;;;;;;5040077;28;20279;-72
2023/04/01 05:08:44;;;;;;;;;;;9.60;99.90;;;;;;5014322;28;19927;-71
2023/04/01 05:11:14;;;;;;;;;;;9.60;99.90;;;;;;5023438;28;19924;-71
2023/04/01 05:13:43;;;;;;;;;;;9.60;99.90;;;;;;5023121;28;20380;-71
2023/04/01 05:16:09;;;;;;;;;;;9.60;99.90;;;;;;5039214;28;20387;-70
2023/04/01 05:18:38;;;;;;;;;;;9.60;99.90;;;;;;5033822;28;20380;-70
2023/04/01 05:21:03;;;;;;;;;;;9.60;99.90;;;;;;5033792;28;19931;-74
2023/04/01 05:23:32;;;;;;;;;;;9.20;99.90;;;;;;5010812;28;20357;-71
2023/04/01 05:26:09;;;;;;;;;;;9.50;99.90;;;;;;5030606;28;20365;-75
2023/04/01 05:28:38;;;;;;;;;;;9.60;99.90;;;;;;5034705;28;19925;-75
2023/04/01 05:31:05;;;;;;;;;;;9.60;99.90;;;;;;5014603;28;20281;-73
2023/04/01 05:33:32;;;;;;;;;;;9.60;99.90;;;;;;5033131;28;19925;-74
2023/04/01 05:36:05;;;;;;;;;;;9.60;99.90;;;;;;5015475;28;19925;-81
2023/04/01 05:38:31;;;;;;;;;;;9.60;99.90;;;;;;5029014;28;19929;-74
2023/04/01 05:41:00;;;;;;;;;;;10.20;99.90;;;;;;5011017;28;19921;-76
2023/04/01 05:43:26;;;;;;;;;;;9.60;99.90;;;;;;5013904;28;19928;-74
2023/04/01 05:45:51;;;;;;;;;;;9.60;99.90;;;;;;4993949;28;19925;-74
2023/04/01 05:48:17;;;;;;;;;;;9.60;99.90;;;;;;5003299;28;20285;-74
2023/04/01 05:50:42;;;;;;;;;;;8.30;99.90;;;;;;5003759;28;20432;-74
2023/04/01 05:53:08;;;;;;;;;;;9.60;99.90;;;;;;4993111;28;19921;-74
2023/04/01 05:55:34;;;;;;;;;;;9.60;99.90;;;;;;4991679;28;19923;-74
2023/04/01 05:58:00;;;;;;;;;;;9.60;99.90;;;;;;5002863;28;19922;-74
2023/04/01 06:00:25;;;;;;;;;;;9.60;99.90;;;;;;4990950;28;20400;-74
2023/04/01 06:02:52;;;;;;;;;;;9.80;99.90;;;;;;5008732;28;19917;-74
2023/04/01 06:05:22;;;;;;;;;;;9.60;99.90;;;;;;5007282;28;20374;-74
2023/04/01 06:07:47;;;;;;;;;;;9.70;99.90;;;;;;5009265;28;19925;-73
2023/04/01 06:10:17;;;;;;;;;;;9.60;99.90;;;;;;5009040;28;19925;-74
2023/04/01 06:12:58;;;;;;;;;;;10.40;99.90;;;;;;5010999;28;20117;-74
2023/04/01 06:15:30;;;;;;;;;;;9.60;99.90;;;;;;5012022;28;20400;-74
2023/04/01 06:18:08;;;;;;;;;;;9.70;99.90;;;;;;4993866;28;19922;-73
2023/04/01 06:20:43;;;;;;;;;;;9.70;99.90;;;;;;5012726;28;20403;-74
2023/04/01 06:23:15;;;;;;;;;;;9.70;99.90;;;;;;5012678;28;19928;-74
2023/04/01 06:25:46;;;;;;;;;;;9.70;99.90;;;;;;4995388;28;20384;-74
2023/04/01 06:28:36;;;;;;;;;;;9.70;99.90;;;;;;5013345;28;19967;-74
2023/04/01 06:31:20;;;;;;;;;;;9.70;99.90;;;;;;5006827;28;19952;-74
2023/04/01 06:33:58;;;;;;;;;;;9.70;99.90;;;;;;4993396;28;20369;-74
2023/04/01 06:36:42;;;;;;;;;;;9.70;99.90;;;;;;4993050;28;19964;-74
2023/04/01 06:39:26;;;;;;;;;;;9.70;99.90;;;;;;4976115;28;20381;-74
2023/04/01 06:42:01;;;;;;;;;;;9.80;99.90;;;;;;4975871;28;20381;-74
2023/04/01 06:44:26;;;;;;;;;;;9.80;99.90;;;;;;4992597;28;19926;-74
2023/04/01 06:46:52;;;;;;;;;;;9.80;99.90;;;;;;5005455;28;19930;-74
2023/04/01 06:49:28;;;;;;;;;;;9.80;99.90;;;;;;5012470;28;19922;-74
2023/04/01 06:52:14;;;;;;;;;;;9.80;99.90;;;;;;5011098;28;19925;-74
2023/04/01 06:54:46;;;;;;;;;;;9.80;99.90;;;;;;5012717;28;20347;-74
2023/04/01 06:57:30;;;;;;;;;;;9.90;99.90;;;;;;5012642;28;20341;-74
2023/04/01 06:59:59;;;;;;;;;;;9.90;99.90;;;;;;5010716;28;19925;-74
2023/04/01 07:02:32;;;;;;;;;;;10.40;99.90;;;;;;5012717;28;20376;-74
2023/04/01 07:04:58;;;;;;;;;;;9.90;99.90;;;;;;5003315;28;20012;-74
2023/04/01 07:07:57;;;;;;;;;;;9.90;99.90;;;;;;4992840;28;19926;-74
2023/04/01 07:10:45;;;;;;;;;;;9.90;99.90;;;;;;4970531;28;19925;-74
2023/04/01 07:13:23;;;;;;;;;;;9.90;99.90;;;;;;4983502;28;19922;-74
2023/04/01 07:16:01;;;;;;;;;;;10.00;99.90;;;;;;5007419;28;19921;-74
2023/04/01 07:18:53;;;;;;;;;;;10.10;99.90;;;;;;5003627;28;19988;-75
2023/04/01 07:21:27;;;;;;;;;;;10.00;99.90;;;;;;4993226;28;19977;-74
2023/04/01 07:23:56;;;;;;;;;;;10.00;99.90;;;;;;4996932;28;19979;-74
2023/04/01 07:26:23;;;;;;;;;;;10.40;99.90;;;;;;4995190;28;19921;-74
2023/04/01 07:28:50;;;;;;;;;;;10.00;99.90;;;;;;4995426;28;19928;-74
2023/04/01 07:31:19;;;;;;;;;;;9.90;99.90;;;;;;4996565;28;20286;-74
2023/04/01 07:34:04;;;;;;;;;;;9.90;99.90;;;;;;4994517;28;19922;-74
2023/04/01 07:36:30;;;;;;;;;;;9.90;99.90;;;;;;4995952;28;20278;-74
2023/04/01 07:38:57;;;;;;;;;;;9.90;99.90;;;;;;4995282;28;19928;-73
2023/04/01 07:41:23;;;;;;;;;;;9.90;99.90;;;;;;4993951;28;19921;-73
2023/04/01 07:43:48;;;;;;;;;;;10.00;99.90;;;;;;4999679;28;19991;-73
2023/04/01 07:46:30;;;;;;;;;;;10.10;99.90;;;;;;4998613;28;20008;-74
2023/04/01 07:49:16;;;;;;;;;;;10.00;99.90;;;;;;4997985;28;19922;-74
2023/04/01 07:51:59;;;;;;;;;;;10.10;99.90;;;;;;5016277;28;19921;-74
2023/04/01 07:54:33;;;;;;;;;;;10.10;99.90;;;;;;5014998;28;19921;-74
2023/04/01 07:57:05;;;;;;;;;;;10.10;99.90;;;;;;5015503;28;19921;-74
2023/04/01 07:59:51;;;;;;;;;;;10.90;99.90;;;;;;5014055;28;20374;-74
2023/04/01 08:02:43;;;;;;;;;;;10.20;99.90;;;;;;5015883;28;20368;-74
2023/04/01 08:05:24;;;;;;;;;;;10.20;99.90;;;;;;5004735;28;19921;-74
2023/04/01 08:07:55;;;;;;;;;;;10.20;99.90;;;;;;5035346;28;19921;-74
2023/04/01 08:10:21;;;;;;;;;;;10.20;99.90;;;;;;5033800;28;20257;-74
2023/04/01 08:12:49;;;;;;;;;;;10.30;99.90;;;;;;5033842;28;19927;-74
2023/04/01 08:15:15;;;;;;;;;;;10.20;99.90;;;;;;5034660;28;19920;-74
2023/04/01 08:17:47;;;;;;;;;;;10.80;99.90;;;;;;5033086;28;19928;-74
2023/04/01 08:20:28;;;;;;;;;;;10.20;99.90;;;;;;5019790;28;19954;-75
2023/04/01 08:23:13;;;;;;;;;;;10.20;99.90;;;;;;5012934;28;19940;-75
2023/04/01 08:25:40;;;;;;;;;;;10.60;99.90;;;;;;5015137;28;19960;-75
2023/04/01 08:28:06;;;;;;;;;;;10.40;99.90;;;;;;5013652;28;19921;-75
2023/04/01 08:30:37;;;;;;;;;;;10.50;99.90;;;;;;5014475;28;19921;-75
2023/04/01 08:33:12;;;;;;;;;;;10.50;99.90;;;;;;5033560;28;20384;-75
2023/04/01 08:35:38;;;;;;;;;;;10.50;99.90;;;;;;5033249;28;19925;-75
2023/04/01 08:38:10;;;;;;;;;;;10.50;99.90;;;;;;5034017;28;19985;-75
2023/04/01 08:40:55;;;;;;;;;;;10.60;99.90;;;;;;5034151;28;19920;-75
2023/04/01 08:43:41;;;;;;;;;;;10.60;99.90;;;;;;5032433;28;19928;-76
2023/04/01 08:46:13;;;;;;;;;;;10.70;99.90;;;;;;5017552;28;20380;-75
2023/04/01 08:48:50;;;;;;;;;;;10.70;99.90;;;;;;5014096;28;20400;-75
2023/04/01 08:51:25;;;;;;;;;;;10.60;99.90;;;;;;5031061;28;19927;-75
2023/04/01 08:53:51;;;;;;;;;;;10.70;99.90;;;;;;5016406;28;19925;-75
2023/04/01 08:56:35;;;;;;;;;;;10.70;99.90;;;;;;5016725;28;19920;-75
2023/04/01 08:59:20;;;;;;;;;;;11.00;99.90;;;;;;5016376;28;20012;-75
2023/04/01 09:02:01;;;;;;;;;;;11.20;99.90;;;;;;5033896;28;20269;-75
2023/04/01 09:04:39;;;;;;;;;;;11.20;99.90;;;;;;5031934;28;19921;-74
2023/04/01 09:07:07;;;;;;;;;;;11.10;99.90;;;;;;5016101;28;19921;-75
2023/04/01 09:09:39;;;;;;;;;;;11.00;99.90;;;;;;5016127;28;19920;-75
2023/04/01 09:12:23;;;;;;;;;;;11.00;99.90;;;;;;5033417;28;20261;-74
2023/04/01 09:14:49;;;;;;;;;;;11.00;99.90;;;;;;5033952;28;19920;-75
2023/04/01 09:17:27;;;;;;;;;;;11.00;99.90;;;;;;5015870;28;20373;-75
2023/04/01 09:20:01;;;;;;;;;;;11.00;99.90;;;;;;5034378;28;19921;-74
2023/04/01 09:22:32;;;;;;;;;;;11.00;99.90;;;;;;5015669;28;20407;-73
2023/04/01 09:25:01;;;;;;;;;;;11.10;99.90;;;;;;5033806;28;19991;-74
2023/04/01 09:27:30;;;;;;;;;;;11.10;99.90;;;;;;5032456;28;19921;-74
2023/04/01 09:30:15;;;;;;;;;;;11.00;99.90;;;;;;5030055;28;19920;-74
2023/04/01 09:33:05;;;;;;;;;;;11.00;99.90;;;;;;5014341;28;19925;-74
2023/04/01 09:35:34;;;;;;;;;;;11.00;99.90;;;;;;5015838;28;19975;-73
2023/04/01 09:38:08;;;;;;;;;;;11.00;99.90;;;;;;5033390;28;20281;-74
2023/04/01 09:40:34;;;;;;;;;;;11.00;99.90;;;;;;5050776;28;19925;-74
2023/04/01 09:43:16;;;;;;;;;;;11.10;99.90;;;;;;5053330;28;20379;-74
2023/04/01 09:45:57;;;;;;;;;;;11.20;99.90;;;;;;5052924;28;19920;-74
2023/04/01 09:48:22;;;;;;;;;;;11.20;99.90;;;;;;5034181;28;19920;-74
2023/04/01 09:50:54;;;;;;;;;;;11.20;99.90;;;;;;5052877;28;20044;-74
2023/04/01 09:53:20;;;;;;;;;;;10.40;99.90;;;;;;5053051;28;19928;-74
2023/04/01 09:56:17;;;;;;;;;;;11.10;99.90;;;;;;5052120;28;19917;-74
2023/04/01 09:59:01;;;;;;;;;;;11.10;99.90;;;;;;5035164;28;19921;-74
2023/04/01 10:01:45;;;;;;;;;;;11.10;99.90;;;;;;5052086;28;19920;-74
2023/04/01 10:04:11;;;;;;;;;;;11.30;99.90;;;;;;5052908;28;19916;-74
2023/04/01 10:06:57;;;;;;;;;;;11.40;99.90;;;;;;5035062;28;20393;-74
2023/04/01 10:09:28;;;;;;;;;;;11.50;99.90;;;;;;5046767;28;19921;-74
2023/04/01 10:12:14;;;;;;;;;;;11.30;99.90;;;;;;5015407;28;19925;-74
2023/04/01 10:14:42;;;;;;;;;;;12.20;99.90;;;;;;5032234;28;20416;-74
2023/04/01 10:17:08;;;;;;;;;;;11.40;99.90;;;;;;5015406;28;19968;-74
2023/04/01 10:19:52;;;;;;;;;;;11.50;99.90;;;;;;5032725;28;19925;-73
2023/04/01 10:22:24;;;;;;;;;;;11.40;99.90;;;;;;5047653;28;20384;-74
2023/04/01 10:24:53;;;;;;;;;;;11.30;99.90;;;;;;5053166;28;19927;-74
2023/04/01 10:27:25;;;;;;;;;;;11.40;99.90;;;;;;5034723;28;19920;-74
2023/04/01 10:30:21;;;;;;;;;;;11.40;99.90;;;;;;5022532;28;19921;-73
2023/04/01 10:33:07;;;;;;;;;;;11.30;99.90;;;;;;5033284;28;19931;-73
2023/04/01 10:35:54;;;;;;;;;;;11.10;99.90;;;;;;5014861;28;19921;-74
2023/04/01 10:38:38;;;;;;;;;;;10.90;99.90;;;;;;5032961;28;19924;-73
2023/04/01 10:41:42;;;;;;;;;;;10.80;99.90;;;;;;5027745;28;19925;-73
2023/04/01 10:44:40;;;;;;;;;;;10.70;99.90;;;;;;4971072;28;19921;-73
2023/04/01 10:47:08;;;;;;;;;;;10.70;99.90;;;;;;4950659;28;20006;-73
2023/04/01 10:49:57;;;;;;;;;;;10.70;99.90;;;;;;5028174;28;20009;-73
2023/04/01 10:52:22;;;;;;;;;;;10.70;99.90;;;;;;5053444;28;19964;-73
2023/04/01 10:54:51;;;;;;;;;;;10.70;99.90;;;;;;5028812;28;20002;-74
2023/04/01 10:57:25;;;;;;;;;;;10.60;99.90;;;;;;5036006;28;19921;-73
2023/04/01 10:59:57;;;;;;;;;;;10.70;99.90;;;;;;5018839;28;20018;-74
2023/04/01 11:02:28;;;;;;;;;;;10.60;99.90;;;;;;5036300;28;19928;-73
2023/04/01 11:05:16;;;;;;;;;;;10.60;99.90;;;;;;5035414;28;20010;-73
2023/04/01 11:07:51;;;;;;;;;;;10.70;99.90;;;;;;5035714;28;20367;-74
2023/04/01 11:10:35;;;;;;;;;;;10.70;99.90;;;;;;5028672;28;19973;-73
2023/04/01 11:13:36;;;;;;;;;;;10.60;99.90;;;;;;5037358;28;20386;-74
2023/04/01 11:16:17;;;;;;;;;;;10.60;99.90;;;;;;4958824;28;19922;-74
2023/04/01 11:19:01;;;;;;;;;;;10.70;99.90;;;;;;5046805;28;19928;-73
2023/04/01 11:21:32;;;;;;;;;;;10.70;99.90;;;;;;5055723;28;20436;-74
2023/04/01 11:24:16;;;;;;;;;;;10.60;99.90;;;;;;5056173;28;19920;-75
2023/04/01 11:26:52;;;;;;;;;;;10.60;99.90;;;;;;5055084;28;19920;-75
2023/04/01 11:29:26;;;;;;;;;;;10.70;99.90;;;;;;5055038;28;19920;-74
2023/04/01 11:31:55;;;;;;;;;;;10.70;99.90;;;;;;5037990;28;20024;-74
2023/04/01 11:34:56;;;;;;;;;;;10.70;99.90;;;;;;5037207;28;19920;-74
2023/04/01 11:37:29;;;;;;;;;;;10.60;99.90;;;;;;4974735;28;20333;-75
2023/04/01 11:39:55;;;;;;;;;;;10.70;99.90;;;;;;5026159;28;19971;-75
2023/04/01 11:42:27;;;;;;;;;;;10.70;99.90;;;;;;5037684;28;19970;-74
2023/04/01 11:45:06;;;;;;;;;;;10.70;99.90;;;;;;5037867;28;19996;-74
2023/04/01 11:47:40;;;;;;;;;;;10.60;99.90;;;;;;5056014;28;19921;-74
2023/04/01 11:50:18;;;;;;;;;;;10.60;99.90;;;;;;5039681;28;20250;-74
2023/04/01 11:53:02;;;;;;;;;;;10.60;99.90;;;;;;5020533;28;20030;-74
2023/04/01 11:55:35;;;;;;;;;;;10.60;99.90;;;;;;5021310;28;20412;-72
2023/04/01 11:58:13;;;;;;;;;;;10.60;99.90;;;;;;5022892;28;19920;-72
2023/04/01 12:00:46;;;;;;;;;;;10.70;99.90;;;;;;5039104;28;19921;-73
2023/04/01 12:03:26;;;;;;;;;;;10.70;99.90;;;;;;5021040;28;19921;-73
2023/04/01 12:05:52;;;;;;;;;;;10.60;99.90;;;;;;5054743;28;20011;-74
2023/04/01 12:08:29;;;;;;;;;;;10.60;99.90;;;;;;5054320;28;20019;-73
2023/04/01 12:11:03;;;;;;;;;;;10.60;99.90;;;;;;5041710;28;20011;-73
2023/04/01 12:13:48;;;;;;;;;;;10.60;99.90;;;;;;5034794;28;20388;-72
2023/04/01 12:16:19;;;;;;;;;;;10.50;99.90;;;;;;5051140;28;19927;-73
2023/04/01 12:19:02;;;;;;;;;;;10.50;99.90;;;;;;5055176;28;19916;-73
2023/04/01 12:21:42;;;;;;;;;;;10.50;99.90;;;;;;5035954;28;20011;-73
2023/04/01 12:24:30;;;;;;;;;;;10.40;99.90;;;;;;5037031;28;20011;-72
2023/04/01 12:27:16;;;;;;;;;;;10.40;99.90;;;;;;5036318;28;19927;-73
2023/04/01 12:29:57;;;;;;;;;;;10.30;99.90;;;;;;5012764;28;19920;-73
2023/04/01 12:32:33;;;;;;;;;;;10.30;99.90;;;;;;5054071;28;20326;-73
2023/04/01 12:35:02;;;;;;;;;;;10.30;99.90;;;;;;5032536;28;19917;-74
2023/04/01 12:37:35;;;;;;;;;;;10.30;99.90;;;;;;5015885;28;19929;-73
2023/04/01 12:40:20;;;;;;;;;;;10.30;99.90;;;;;;5034765;28;20356;-73
2023/04/01 12:42:48;;;;;;;;;;;10.40;99.90;;;;;;5036376;28;19929;-74
2023/04/01 12:45:30;;;;;;;;;;;10.30;99.90;;;;;;5018811;28;20380;-74
2023/04/01 12:47:59;;;;;;;;;;;10.30;99.90;;;;;;5016687;28;20380;-74
2023/04/01 12:50:51;;;;;;;;;;;10.30;99.90;;;;;;5015403;28;19932;-74
2023/04/01 12:53:29;;;;;;;;;;;10.30;99.90;;;;;;5034262;28;19927;-74
2023/04/01 12:55:55;;;;;;;;;;;10.20;99.90;;;;;;5033928;28;19921;-74
2023/04/01 12:58:40;;;;;;;;;;;10.20;99.90;;;;;;5044840;28;20011;-73
2023/04/01 13:01:25;;;;;;;;;;;10.10;99.90;;;;;;5016982;28;20368;-74
2023/04/01 13:04:18;;;;;;;;;;;10.10;99.90;;;;;;5015703;28;20014;-74
2023/04/01 13:07:04;;;;;;;;;;;10.20;99.90;;;;;;5016574;28;19960;-74
2023/04/01 13:09:49;;;;;;;;;;;10.10;99.90;;;;;;5014560;28;19920;-74
2023/04/01 13:12:14;;;;;;;;;;;10.20;99.90;;;;;;5015607;28;19951;-73
2023/04/01 13:14:59;;;;;;;;;;;10.90;99.90;;;;;;5033917;28;19921;-73
2023/04/01 13:17:34;;;;;;;;;;;10.30;99.90;;;;;;5032946;28;19967;-73
2023/04/01 13:20:05;;;;;;;;;;;10.30;99.90;;;;;;5016342;28;19975;-73
2023/04/01 13:22:34;;;;;;;;;;;10.30;99.90;;;;;;5033354;28;19917;-73
2023/04/01 13:25:19;;;;;;;;;;;10.40;99.90;;;;;;5033034;28;20015;-73
2023/04/01 13:27:49;;;;;;;;;;;10.40;99.90;;;;;;4995833;28;19982;-74
2023/04/01 13:30:24;;;;;;;;;;;10.30;99.90;;;;;;5035768;28;19925;-73
2023/04/01 13:33:08;;;;;;;;;;;10.10;99.90;;;;;;5052238;28;19917;-73
2023/04/01 13:35:42;;;;;;;;;;;10.10;99.90;;;;;;5053352;28;19924;-73
2023/04/01 13:38:24;;;;;;;;;;;10.20;99.90;;;;;;5033135;28;20027;-74
2023/04/01 13:41:08;;;;;;;;;;;10.20;99.90;;;;;;5015125;28;19971;-74
2023/04/01 13:43:41;;;;;;;;;;;10.10;99.90;;;;;;5050192;28;19924;-74
2023/04/01 13:46:07;;;;;;;;;;;10.10;99.90;;;;;;5052924;28;19916;-73
2023/04/01 13:48:33;;;;;;;;;;;10.20;99.90;;;;;;5029303;28;20430;-72
2023/04/01 13:50:58;;;;;;;;;;;10.10;99.90;;;;;;5033010;28;20025;-73
2023/04/01 13:53:31;;;;;;;;;;;10.00;99.90;;;;;;5032128;28;19972;-73
2023/04/01 13:56:03;;;;;;;;;;;10.00;99.90;;;;;;5015519;28;19927;-73
2023/04/01 13:58:28;;;;;;;;;;;9.90;99.90;;;;;;5015299;28;20051;-73
2023/04/01 14:01:00;;;;;;;;;;;9.90;99.90;;;;;;5025667;28;20435;-73
2023/04/01 14:03:44;;;;;;;;;;;9.90;99.90;;;;;;5029358;28;19921;-72
2023/04/01 14:06:40;;;;;;;;;;;9.80;99.90;;;;;;5033315;28;20075;-73
2023/04/01 14:09:14;;;;;;;;;;;9.80;99.90;;;;;;5011042;28;20288;-73
2023/04/01 14:11:40;;;;;;;;;;;9.80;99.90;;;;;;5033051;28;19921;-73
2023/04/01 14:14:08;;;;;;;;;;;9.80;99.90;;;;;;5020727;28;20280;-73
2023/04/01 14:16:37;;;;;;;;;;;9.70;99.90;;;;;;5034784;28;19925;-73
2023/04/01 14:19:18;;;;;;;;;;;9.60;99.90;;;;;;5052984;28;19920;-73
2023/04/01 14:21:55;;;;;;;;;;;9.70;99.90;;;;;;5052340;28;19978;-73
2023/04/01 14:24:24;;;;;;;;;;;9.70;99.90;;;;;;5052641;28;20395;-73
2023/04/01 14:26:56;;;;;;;;;;;9.70;99.90;;;;;;5053115;28;20019;-73
2023/04/01 14:29:25;;;;;;;;;;;9.70;99.90;;;;;;5030920;28;20262;-74
2023/04/01 14:32:06;;;;;;;;;;;9.70;99.90;;;;;;5019330;28;19921;-74
2023/04/01 14:34:50;;;;;;;;;;;9.60;99.90;;;;;;5018955;28;20012;-74
2023/04/01 14:37:16;;;;;;;;;;;9.60;99.90;;;;;;5018408;28;19924;-73
2023/04/01 14:39:59;;;;;;;;;;;9.50;99.90;;;;;;5019175;28;19921;-73
2023/04/01 14:42:28;;;;;;;;;;;9.60;99.90;;;;;;5035941;28;19921;-73
2023/04/01 14:45:17;;;;;;;;;;;9.50;99.90;;;;;;5036835;28;20360;-73
2023/04/01 14:48:04;;;;;;;;;;;9.50;99.90;;;;;;5019043;28;19925;-73
2023/04/01 14:50:44;;;;;;;;;;;9.50;99.90;;;;;;5014379;28;19921;-73
2023/04/01 14:53:23;;;;;;;;;;;9.40;99.90;;;;;;5017079;28;19993;-73
2023/04/01 14:55:56;;;;;;;;;;;9.30;99.90;;;;;;5018063;28;19921;-73